Time;durP1;ratioP1;P1;durP2;ratioP2;P2;SDS_P1;SDS_P2;PMS_P1;PMS_P2;Temp;Humidity;BMP_temperature;BMP_pressure;BME280_temperature;BME280_humidity;BME280_pressure;Samples;Min_cycle;Max_cycle;Signal;HPM_P1;HPM_P2
2021/03/28 00:02:47;;;;;;;7.20;4.30;;;;;;;;;;5057729;28;20420;-64
2021/03/28 00:05:21;;;;;;;8.63;4.73;;;;;;;;;;5057949;28;20439;-63
2021/03/28 00:07:52;;;;;;;8.27;5.00;;;;;;;;;;5059187;28;20450;-63
2021/03/28 00:10:29;;;;;;;5.73;4.63;;;;;;;;;;5057075;28;20448;-63
2021/03/28 00:13:07;;;;;;;9.10;4.70;;;;;;;;;;5056676;28;20969;-62
2021/03/28 00:15:37;;;;;;;5.87;4.33;;;;;;;;;;5057702;28;20467;-63
2021/03/28 00:18:20;;;;;;;6.73;4.87;;;;;;;;;;5056784;28;20512;-64
2021/03/28 00:20:46;;;;;;;12.20;4.63;;;;;;;;;;5057535;28;20489;-63
2021/03/28 00:23:23;;;;;;;7.63;4.30;;;;;;;;;;5056487;28;20464;-63
2021/03/28 00:26:00;;;;;;;4.77;4.10;;;;;;;;;;5056884;28;20216;-63
2021/03/28 00:28:41;;;;;;;6.70;4.30;;;;;;;;;;5058056;28;20447;-63
2021/03/28 00:31:21;;;;;;;5.80;4.50;;;;;;;;;;5056874;28;20596;-61
2021/03/28 00:34:12;;;;;;;4.60;4.10;;;;;;;;;;5057720;28;20515;-63
2021/03/28 00:36:43;;;;;;;5.60;4.40;;;;;;;;;;5057158;28;20494;-63
2021/03/28 00:39:10;;;;;;;12.87;5.17;;;;;;;;;;5056988;28;20546;-62
2021/03/28 00:41:39;;;;;;;8.80;5.23;;;;;;;;;;5040275;28;20516;-63
2021/03/28 02:52:21;;;;;;;8.30;4.23;;;;;;;;;;4427148;28;20487;-62
2021/03/28 02:54:58;;;;;;;8.77;4.23;;;;;;;;;;5035955;28;20488;-61
2021/03/28 02:57:36;;;;;;;10.63;4.27;;;;;;;;;;5035511;28;20446;-61
2021/03/28 03:00:16;;;;;;;14.30;4.10;;;;;;;;;;5051113;28;20455;-62
2021/03/28 03:03:18;;;;;;;7.50;4.20;;;;;;;;;;5034549;28;20800;-63
2021/03/28 03:05:57;;;;;;;6.17;3.80;;;;;;;;;;5034813;28;20875;-62
2021/03/28 03:08:50;;;;;;;7.53;3.87;;;;;;;;;;5050918;28;20468;-63
2021/03/28 03:12:03;;;;;;;8.50;4.10;;;;;;;;;;5034782;28;20469;-62
2021/03/28 03:14:47;;;;;;;14.20;4.67;;;;;;;;;;5049483;28;20494;-63
2021/03/28 03:17:45;;;;;;;11.00;5.73;;;;;;;;;;5044290;28;20504;-62
2021/03/28 03:20:37;;;;;;;5.13;4.47;;;;;;;;;;5058191;28;20565;-61
2021/03/28 03:23:17;;;;;;;5.40;4.33;;;;;;;;;;5058719;28;20456;-62
2021/03/28 03:26:00;;;;;;;11.40;5.53;;;;;;;;;;5056964;28;20463;-62
2021/03/28 03:28:57;;;;;;;6.00;4.57;;;;;;;;;;5057196;28;20452;-63
2021/03/28 03:31:49;;;;;;;15.23;4.83;;;;;;;;;;5057226;28;20464;-62
2021/03/28 03:34:51;;;;;;;9.70;5.10;;;;;;;;;;5057909;28;20449;-62
2021/03/28 03:37:48;;;;;;;7.87;4.30;;;;;;;;;;5056871;28;20459;-62
2021/03/28 03:40:33;;;;;;;7.93;4.87;;;;;;;;;;5056838;28;20454;-59
2021/03/28 03:43:20;;;;;;;10.40;5.80;;;;;;;;;;5057183;28;20483;-63
2021/03/28 03:46:14;;;;;;;9.90;5.00;;;;;;;;;;5057978;28;20815;-63
2021/03/28 03:48:56;;;;;;;9.70;4.77;;;;;;;;;;5057601;28;20462;-62
2021/03/28 03:51:47;;;;;;;8.80;4.43;;;;;;;;;;5057032;28;20534;-62
2021/03/28 03:54:32;;;;;;;6.83;3.57;;;;;;;;;;5058120;28;20490;-62
2021/03/28 03:57:03;;;;;;;9.73;4.00;;;;;;;;;;5058481;28;20490;-63
2021/03/28 03:59:38;;;;;;;9.33;4.20;;;;;;;;;;5057846;28;20542;-62
2021/03/28 04:02:13;;;;;;;7.40;3.83;;;;;;;;;;5057876;28;20489;-62
2021/03/28 04:05:04;;;;;;;9.60;5.50;;;;;;;;;;5056521;28;21267;-62
2021/03/28 04:07:59;;;;;;;7.80;3.83;;;;;;;;;;5055693;28;20934;-62
2021/03/28 04:10:36;;;;;;;5.43;4.00;;;;;;;;;;5056736;28;20451;-62
2021/03/28 04:13:19;;;;;;;11.43;4.87;;;;;;;;;;5055782;28;20463;-62
2021/03/28 04:15:51;;;;;;;6.80;3.43;;;;;;;;;;5055452;28;20513;-63
2021/03/28 04:18:34;;;;;;;7.30;4.30;;;;;;;;;;5056587;28;20464;-63
2021/03/28 04:21:34;;;;;;;8.50;4.60;;;;;;;;;;5055380;28;20481;-61
2021/03/28 04:24:17;;;;;;;8.80;3.67;;;;;;;;;;5055934;28;20452;-62
2021/03/28 04:27:06;;;;;;;9.20;3.80;;;;;;;;;;5055323;28;20531;-61
2021/03/28 04:29:31;;;;;;;5.87;3.90;;;;;;;;;;5055838;28;20784;-63
2021/03/28 04:32:02;;;;;;;7.77;4.27;;;;;;;;;;5055324;28;20460;-62
2021/03/28 04:34:38;;;;;;;8.80;3.80;;;;;;;;;;5055394;28;20221;-62
2021/03/28 04:37:20;;;;;;;14.10;4.20;;;;;;;;;;5055559;28;20455;-62
2021/03/28 04:40:23;;;;;;;7.57;4.10;;;;;;;;;;5055527;28;20484;-63
2021/03/28 04:43:07;;;;;;;8.10;3.67;;;;;;;;;;5055202;28;20516;-62
2021/03/28 04:46:09;;;;;;;6.87;3.83;;;;;;;;;;5055978;28;20455;-63
2021/03/28 04:48:47;;;;;;;9.23;4.00;;;;;;;;;;5055227;28;20522;-62
2021/03/28 04:51:34;;;;;;;9.37;4.80;;;;;;;;;;5054632;28;20493;-63
2021/03/28 04:54:31;;;;;;;8.87;3.40;;;;;;;;;;5055934;28;20459;-61
2021/03/28 04:57:11;;;;;;;4.60;3.50;;;;;;;;;;5033704;28;20469;-62
2021/03/28 04:59:56;;;;;;;9.30;3.53;;;;;;;;;;5051810;28;20540;-62
2021/03/28 05:02:26;;;;;;;11.13;3.97;;;;;;;;;;5051919;28;20480;-63
2021/03/28 05:05:32;;;;;;;4.60;3.27;;;;;;;;;;5052123;28;20456;-63
2021/03/28 05:08:25;;;;;;;8.37;3.83;;;;;;;;;;5036087;28;21319;-62
2021/03/28 05:11:08;;;;;;;7.87;4.67;;;;;;;;;;5036276;28;20459;-62
2021/03/28 05:13:51;;;;;;;8.27;4.00;;;;;;;;;;5051189;28;20485;-62
2021/03/28 05:16:45;;;;;;;7.53;3.90;;;;;;;;;;5035231;28;20468;-63
2021/03/28 05:19:40;;;;;;;5.00;4.50;;;;;;;;;;5037481;28;20465;-63
2021/03/28 05:22:53;;;;;;;3.70;3.10;;;;;;;;;;5055108;28;20974;-64
2021/03/28 05:25:51;;;;;;;13.23;3.90;;;;;;;;;;5013784;28;20462;-62
2021/03/28 05:28:58;;;;;;;7.13;4.00;;;;;;;;;;5055241;28;20502;-62
2021/03/28 05:31:38;;;;;;;7.97;3.83;;;;;;;;;;5054210;28;20440;-62
2021/03/28 05:34:45;;;;;;;9.10;3.93;;;;;;;;;;5055254;28;20491;-62
2021/03/28 05:37:43;;;;;;;6.17;4.33;;;;;;;;;;5043525;28;20540;-61
2021/03/28 05:40:35;;;;;;;5.80;3.83;;;;;;;;;;5054888;28;21006;-61
2021/03/28 05:43:07;;;;;;;7.17;4.40;;;;;;;;;;5054322;28;20784;-61
2021/03/28 05:46:07;;;;;;;15.20;4.50;;;;;;;;;;5055240;28;20451;-62
2021/03/28 05:48:54;;;;;;;8.23;3.67;;;;;;;;;;5020028;28;20446;-62
2021/03/28 05:51:47;;;;;;;9.33;4.53;;;;;;;;;;5053838;28;20478;-63
2021/03/28 05:54:34;;;;;;;7.70;4.70;;;;;;;;;;5054596;28;20468;-61
2021/03/28 05:57:16;;;;;;;7.03;4.27;;;;;;;;;;5054600;28;20476;-62
2021/03/28 06:00:00;;;;;;;10.33;4.60;;;;;;;;;;5054535;28;21386;-62
2021/03/28 06:02:51;;;;;;;6.37;4.40;;;;;;;;;;5054738;28;20958;-62
2021/03/28 06:05:46;;;;;;;5.40;4.13;;;;;;;;;;5055291;28;20448;-62
2021/03/28 06:08:47;;;;;;;11.53;4.57;;;;;;;;;;5054373;28;20787;-62
2021/03/28 06:11:45;;;;;;;6.97;4.37;;;;;;;;;;5054492;28;20540;-62
2021/03/28 06:14:33;;;;;;;6.40;4.27;;;;;;;;;;5052920;28;20460;-62
2021/03/28 06:17:19;;;;;;;11.30;3.70;;;;;;;;;;5052832;28;20472;-62
2021/03/28 06:20:03;;;;;;;6.63;3.87;;;;;;;;;;5054278;28;20545;-63
2021/03/28 06:22:38;;;;;;;9.03;4.50;;;;;;;;;;5053072;28;20539;-62
2021/03/28 06:25:09;;;;;;;8.40;4.83;;;;;;;;;;5053501;28;20447;-63
2021/03/28 06:27:52;;;;;;;9.70;4.40;;;;;;;;;;5053856;28;20444;-63
2021/03/28 06:30:48;;;;;;;15.10;4.67;;;;;;;;;;5036313;28;20769;-62
2021/03/28 06:33:52;;;;;;;5.90;4.20;;;;;;;;;;5053633;28;20435;-61
2021/03/28 06:36:36;;;;;;;9.50;4.70;;;;;;;;;;5052691;28;20448;-61
2021/03/28 06:39:27;;;;;;;6.67;3.77;;;;;;;;;;5053365;28;20509;-62
2021/03/28 06:42:22;;;;;;;7.40;4.87;;;;;;;;;;5052502;28;20996;-61
2021/03/28 06:45:19;;;;;;;13.60;5.07;;;;;;;;;;5053504;28;20444;-61
2021/03/28 06:48:20;;;;;;;8.77;4.97;;;;;;;;;;5035110;28;20488;-61
2021/03/28 06:50:51;;;;;;;6.30;4.63;;;;;;;;;;5040545;28;20564;-63
2021/03/28 06:53:26;;;;;;;6.23;4.17;;;;;;;;;;5058187;28;20460;-63
2021/03/28 06:56:46;;;;;;;8.70;4.67;;;;;;;;;;5056241;28;20455;-61
2021/03/28 06:59:34;;;;;;;4.93;4.43;;;;;;;;;;5030488;28;20905;-62
2021/03/28 07:02:02;;;;;;;8.40;3.80;;;;;;;;;;5052671;28;20471;-61
2021/03/28 07:04:52;;;;;;;11.23;5.43;;;;;;;;;;5055603;28;20544;-63
2021/03/28 07:07:45;;;;;;;9.93;5.50;;;;;;;;;;5056041;28;20427;-61
2021/03/28 07:10:25;;;;;;;11.00;4.70;;;;;;;;;;5057214;28;20463;-62
2021/03/28 07:13:13;;;;;;;11.33;4.63;;;;;;;;;;5056214;28;20541;-62
2021/03/28 07:15:52;;;;;;;8.83;4.00;;;;;;;;;;5055788;28;20559;-62
2021/03/28 07:18:43;;;;;;;7.57;4.20;;;;;;;;;;5056444;28;20498;-62
2021/03/28 07:21:21;;;;;;;6.20;4.60;;;;;;;;;;5053930;28;20480;-61
2021/03/28 07:24:23;;;;;;;6.40;4.90;;;;;;;;;;5055898;28;20919;-62
2021/03/28 07:27:10;;;;;;;6.40;4.30;;;;;;;;;;5056806;28;20447;-61
2021/03/28 07:30:03;;;;;;;6.93;4.47;;;;;;;;;;5056789;28;20453;-62
2021/03/28 07:32:34;;;;;;;5.87;5.00;;;;;;;;;;5056087;28;20512;-61
2021/03/28 07:35:02;;;;;;;4.93;4.43;;;;;;;;;;5056882;28;20477;-60
2021/03/28 07:37:43;;;;;;;11.20;5.47;;;;;;;;;;5056905;28;20933;-61
2021/03/28 07:40:22;;;;;;;8.53;4.80;;;;;;;;;;5056307;28;20473;-61
2021/03/28 07:43:02;;;;;;;6.73;4.63;;;;;;;;;;5056036;28;20460;-62
2021/03/28 07:46:05;;;;;;;7.47;4.60;;;;;;;;;;5056098;28;20460;-61
2021/03/28 07:48:48;;;;;;;6.43;5.30;;;;;;;;;;5056881;28;20511;-61
2021/03/28 07:51:52;;;;;;;5.33;3.83;;;;;;;;;;5056223;28;20501;-61
2021/03/28 07:54:33;;;;;;;10.40;4.40;;;;;;;;;;5056615;28;20432;-59
2021/03/28 07:57:24;;;;;;;7.00;4.17;;;;;;;;;;5056272;28;20456;-61
2021/03/28 08:00:07;;;;;;;8.10;4.47;;;;;;;;;;5055736;28;21042;-61
2021/03/28 08:02:35;;;;;;;6.00;4.20;;;;;;;;;;5056601;28;20765;-60
2021/03/28 08:05:27;;;;;;;6.50;4.83;;;;;;;;;;5056776;28;21011;-60
2021/03/28 08:08:17;;;;;;;8.83;4.27;;;;;;;;;;5056814;28;20491;-60
2021/03/28 08:11:14;;;;;;;7.17;4.30;;;;;;;;;;5056044;28;20458;-61
2021/03/28 08:14:05;;;;;;;10.97;5.07;;;;;;;;;;5056473;28;20436;-61
2021/03/28 08:16:40;;;;;;;6.30;4.50;;;;;;;;;;5055403;28;20830;-60
2021/03/28 08:19:32;;;;;;;6.37;3.83;;;;;;;;;;5055322;28;20515;-61
2021/03/28 08:22:06;;;;;;;6.20;4.00;;;;;;;;;;5056647;28;20443;-61
2021/03/28 08:24:46;;;;;;;5.43;3.90;;;;;;;;;;5054798;28;20451;-62
2021/03/28 08:27:28;;;;;;;7.33;4.07;;;;;;;;;;5055105;28;20953;-63
2021/03/28 08:30:02;;;;;;;5.40;4.13;;;;;;;;;;5037886;28;20474;-62
2021/03/28 08:33:05;;;;;;;5.73;3.77;;;;;;;;;;5054566;28;20486;-63
2021/03/28 08:35:52;;;;;;;6.80;4.27;;;;;;;;;;5055310;28;20728;-61
2021/03/28 08:38:44;;;;;;;7.37;5.00;;;;;;;;;;5050594;28;20460;-62
2021/03/28 08:41:35;;;;;;;12.63;4.47;;;;;;;;;;5050707;28;20472;-63
2021/03/28 08:44:18;;;;;;;10.63;4.37;;;;;;;;;;5034527;28;20816;-62
2021/03/28 08:47:21;;;;;;;5.73;3.93;;;;;;;;;;5035761;28;20431;-62
2021/03/28 08:49:58;;;;;;;11.23;4.70;;;;;;;;;;5035259;28;20806;-62
2021/03/28 08:52:30;;;;;;;8.37;4.27;;;;;;;;;;5035213;28;20477;-62
2021/03/28 08:55:16;;;;;;;7.53;4.50;;;;;;;;;;5050066;28;20567;-63
2021/03/28 08:58:20;;;;;;;7.67;3.97;;;;;;;;;;5050452;28;20439;-63
2021/03/28 09:00:58;;;;;;;6.30;4.20;;;;;;;;;;5034468;28;20804;-62
2021/03/28 09:03:42;;;;;;;10.00;5.30;;;;;;;;;;5056771;28;20984;-62
2021/03/28 09:06:13;;;;;;;9.70;4.20;;;;;;;;;;5055025;28;20479;-63
2021/03/28 09:09:01;;;;;;;10.33;4.27;;;;;;;;;;5036422;28;20438;-62
2021/03/28 09:12:00;;;;;;;6.80;4.07;;;;;;;;;;5053017;28;20786;-61
2021/03/28 09:14:46;;;;;;;6.50;4.23;;;;;;;;;;5036782;28;20955;-63
2021/03/28 09:17:22;;;;;;;6.07;4.20;;;;;;;;;;5053781;28;20450;-62
2021/03/28 09:20:06;;;;;;;12.67;4.60;;;;;;;;;;5050129;28;20808;-62
2021/03/28 09:23:03;;;;;;;7.37;4.67;;;;;;;;;;5047916;28;20532;-63
2021/03/28 09:25:37;;;;;;;12.77;3.90;;;;;;;;;;5042648;28;20517;-63
2021/03/28 09:28:51;;;;;;;3.73;3.27;;;;;;;;;;5045853;28;20840;-62
2021/03/28 09:31:34;;;;;;;6.03;3.73;;;;;;;;;;5032640;28;20775;-63
2021/03/28 09:34:19;;;;;;;6.03;3.80;;;;;;;;;;5033458;28;20462;-62
2021/03/28 09:37:13;;;;;;;9.67;3.80;;;;;;;;;;5041582;28;20498;-64
2021/03/28 09:39:59;;;;;;;10.80;3.83;;;;;;;;;;5053873;28;20454;-62
2021/03/28 09:42:52;;;;;;;7.23;3.30;;;;;;;;;;5053153;28;20431;-63
2021/03/28 09:45:42;;;;;;;7.07;3.83;;;;;;;;;;5053538;28;20481;-63
2021/03/28 09:48:34;;;;;;;8.13;4.40;;;;;;;;;;5052895;28;20802;-62
2021/03/28 09:51:16;;;;;;;9.37;4.57;;;;;;;;;;5053092;28;20792;-63
2021/03/28 09:54:14;;;;;;;8.77;4.13;;;;;;;;;;5053210;28;20552;-63
2021/03/28 09:56:57;;;;;;;8.00;4.27;;;;;;;;;;5053731;28;20921;-61
2021/03/28 09:59:40;;;;;;;8.03;4.70;;;;;;;;;;5054335;28;20481;-63
2021/03/28 10:02:32;;;;;;;5.53;4.50;;;;;;;;;;5053688;28;20442;-63
2021/03/28 10:05:19;;;;;;;9.13;3.53;;;;;;;;;;5052546;28;20467;-61
2021/03/28 10:08:07;;;;;;;8.30;3.70;;;;;;;;;;5054245;28;20836;-63
2021/03/28 10:10:36;;;;;;;10.43;3.73;;;;;;;;;;5052962;28;20522;-61
2021/03/28 10:13:10;;;;;;;7.67;3.30;;;;;;;;;;5053901;28;20463;-62
2021/03/28 10:16:07;;;;;;;5.60;3.67;;;;;;;;;;5053674;28;20741;-62
2021/03/28 10:18:39;;;;;;;10.77;3.67;;;;;;;;;;5052441;28;20514;-62
2021/03/28 10:21:22;;;;;;;6.27;3.30;;;;;;;;;;5052704;28;20470;-63
2021/03/28 10:24:10;;;;;;;7.70;3.50;;;;;;;;;;5052867;28;20461;-62
2021/03/28 10:27:01;;;;;;;4.70;3.40;;;;;;;;;;5056600;28;20480;-62
2021/03/28 10:29:57;;;;;;;6.57;2.70;;;;;;;;;;5057966;28;20425;-62
2021/03/28 10:32:41;;;;;;;4.77;3.23;;;;;;;;;;5056326;28;20460;-61
2021/03/28 10:35:30;;;;;;;11.23;3.97;;;;;;;;;;5058085;28;20929;-63
2021/03/28 10:38:34;;;;;;;10.50;4.27;;;;;;;;;;5056499;28;20437;-63
2021/03/28 10:41:14;;;;;;;6.50;2.60;;;;;;;;;;5057254;28;20543;-63
2021/03/28 10:43:48;;;;;;;6.73;3.60;;;;;;;;;;5057501;28;20784;-63
2021/03/28 10:46:31;;;;;;;5.87;3.63;;;;;;;;;;5056050;28;20523;-61
2021/03/28 10:49:34;;;;;;;9.23;3.90;;;;;;;;;;5057024;28;20433;-61
2021/03/28 10:52:37;;;;;;;6.63;3.03;;;;;;;;;;5056485;28;20931;-62
2021/03/28 10:55:26;;;;;;;8.10;3.73;;;;;;;;;;5049196;28;20444;-62
2021/03/28 10:58:22;;;;;;;6.10;3.10;;;;;;;;;;5036297;28;20446;-62
2021/03/28 11:01:14;;;;;;;7.43;3.10;;;;;;;;;;5035843;28;20449;-61
2021/03/28 11:04:03;;;;;;;9.33;3.40;;;;;;;;;;5045199;28;20462;-62
2021/03/28 11:06:59;;;;;;;6.13;3.70;;;;;;;;;;5056630;28;20433;-61
2021/03/28 11:09:43;;;;;;;5.70;3.43;;;;;;;;;;5055422;28;20447;-61
2021/03/28 11:12:36;;;;;;;8.87;3.33;;;;;;;;;;5050443;28;20456;-62
2021/03/28 11:15:22;;;;;;;5.67;3.53;;;;;;;;;;5055247;28;20499;-61
2021/03/28 11:17:56;;;;;;;9.07;3.73;;;;;;;;;;5057098;28;20483;-61
2021/03/28 11:20:25;;;;;;;7.20;3.50;;;;;;;;;;5055469;28;20527;-61
2021/03/28 11:23:26;;;;;;;4.73;3.83;;;;;;;;;;5055443;28;20990;-62
2021/03/28 11:26:42;;;;;;;6.47;3.70;;;;;;;;;;5056101;28;20468;-61
2021/03/28 11:29:47;;;;;;;8.63;3.93;;;;;;;;;;5055657;28;20806;-58
2021/03/28 11:32:32;;;;;;;6.77;3.70;;;;;;;;;;5055613;28;20790;-58
2021/03/28 11:35:03;;;;;;;9.87;4.73;;;;;;;;;;5055158;28;20828;-59
2021/03/28 11:37:49;;;;;;;7.10;4.47;;;;;;;;;;5056807;28;20494;-59
2021/03/28 11:40:17;;;;;;;12.27;5.20;;;;;;;;;;5056279;28;20487;-59
2021/03/28 11:42:45;;;;;;;7.40;3.97;;;;;;;;;;5056643;28;20547;-59
2021/03/28 11:45:36;;;;;;;4.77;3.20;;;;;;;;;;5071772;28;20517;-58
2021/03/28 11:48:03;;;;;;;6.13;3.20;;;;;;;;;;5055159;28;20456;-59
2021/03/28 11:50:37;;;;;;;6.33;3.17;;;;;;;;;;5055196;28;20585;-59
2021/03/28 11:53:24;;;;;;;5.33;2.70;;;;;;;;;;5055559;28;20557;-58
2021/03/28 11:55:55;;;;;;;5.10;3.10;;;;;;;;;;5056430;28;20510;-58
2021/03/28 11:58:20;;;;;;;7.00;2.87;;;;;;;;;;5054640;28;20526;-59
2021/03/28 12:00:56;;;;;;;8.05;3.45;;;;;;;;;;5056341;28;20479;-59
2021/03/28 12:03:22;;;;;;;4.30;2.63;;;;;;;;;;5055893;28;20591;-59
2021/03/28 12:05:55;;;;;;;4.40;2.87;;;;;;;;;;5056707;28;20497;-58
2021/03/28 12:08:21;;;;;;;4.63;2.70;;;;;;;;;;5055128;28;20221;-58
2021/03/28 12:11:07;;;;;;;7.80;3.10;;;;;;;;;;5056004;28;20762;-60
2021/03/28 12:13:44;;;;;;;7.97;3.27;;;;;;;;;;5056454;28;20936;-59
2021/03/28 12:16:10;;;;;;;6.00;3.20;;;;;;;;;;5056330;28;20771;-60
2021/03/28 12:18:42;;;;;;;10.93;4.60;;;;;;;;;;5055940;28;20544;-58
2021/03/28 12:21:07;;;;;;;8.57;3.47;;;;;;;;;;5055043;28;20225;-59
2021/03/28 12:23:34;;;;;;;9.10;4.43;;;;;;;;;;5055053;28;20456;-59
2021/03/28 12:26:11;;;;;;;8.17;3.67;;;;;;;;;;5054820;28;20680;-59
2021/03/28 12:28:46;;;;;;;8.73;3.30;;;;;;;;;;5054986;28;20513;-59
2021/03/28 12:31:32;;;;;;;9.00;3.10;;;;;;;;;;5055465;28;20938;-59
2021/03/28 12:34:24;;;;;;;5.63;3.17;;;;;;;;;;5055356;28;20515;-59
2021/03/28 12:37:04;;;;;;;4.77;2.20;;;;;;;;;;5055411;28;20547;-60
2021/03/28 12:39:32;;;;;;;6.30;3.47;;;;;;;;;;5055711;28;20457;-58
2021/03/28 12:42:03;;;;;;;11.20;2.63;;;;;;;;;;5055531;28;20444;-59
2021/03/28 12:44:33;;;;;;;5.17;2.60;;;;;;;;;;5055796;28;21005;-58
2021/03/28 12:47:17;;;;;;;5.13;3.23;;;;;;;;;;5053936;28;20440;-58
2021/03/28 12:49:54;;;;;;;3.90;3.00;;;;;;;;;;5055345;28;20768;-64
2021/03/28 12:52:26;;;;;;;4.47;2.83;;;;;;;;;;5053725;28;20450;-62
2021/03/28 12:54:54;;;;;;;6.33;2.70;;;;;;;;;;5054081;28;20459;-62
2021/03/28 12:57:25;;;;;;;4.70;2.20;;;;;;;;;;5054754;28;20978;-62
2021/03/28 12:59:50;;;;;;;4.40;2.17;;;;;;;;;;5054979;28;20790;-63
2021/03/28 13:02:42;;;;;;;5.10;2.63;;;;;;;;;;5054546;28;20473;-63
2021/03/28 13:05:29;;;;;;;4.43;2.20;;;;;;;;;;5053356;28;20732;-62
2021/03/28 13:07:57;;;;;;;6.00;2.63;;;;;;;;;;5054819;28;20789;-63
2021/03/28 13:10:32;;;;;;;3.33;2.00;;;;;;;;;;5054592;28;20490;-62
2021/03/28 13:13:06;;;;;;;6.03;2.30;;;;;;;;;;5054568;28;20494;-63
2021/03/28 13:15:43;;;;;;;4.03;1.87;;;;;;;;;;5052916;28;20803;-63
2021/03/28 13:18:17;;;;;;;3.93;2.43;;;;;;;;;;5054233;28;20458;-61
2021/03/28 13:20:45;;;;;;;5.00;2.50;;;;;;;;;;5053663;28;20523;-62
2021/03/28 13:23:29;;;;;;;3.13;1.70;;;;;;;;;;5036271;28;20451;-61
2021/03/28 13:26:18;;;;;;;3.60;2.00;;;;;;;;;;5054456;28;20529;-62
2021/03/28 13:28:55;;;;;;;3.30;2.03;;;;;;;;;;5054393;28;20446;-62
2021/03/28 13:31:31;;;;;;;2.07;1.80;;;;;;;;;;5054307;28;20456;-63
2021/03/28 13:34:06;;;;;;;3.70;2.10;;;;;;;;;;5054169;28;20459;-62
2021/03/28 13:36:39;;;;;;;4.57;2.73;;;;;;;;;;5054562;28;20458;-63
2021/03/28 13:39:07;;;;;;;4.10;2.00;;;;;;;;;;5053863;28;20955;-60
2021/03/28 13:41:38;;;;;;;4.00;2.10;;;;;;;;;;5054651;28;20943;-63
2021/03/28 13:44:17;;;;;;;5.40;2.97;;;;;;;;;;5069422;28;20557;-61
2021/03/28 13:47:04;;;;;;;6.33;2.50;;;;;;;;;;5054611;28;20474;-61
2021/03/28 13:49:51;;;;;;;3.70;2.10;;;;;;;;;;5053708;28;20517;-61
2021/03/28 13:52:25;;;;;;;4.50;2.33;;;;;;;;;;5053620;28;20470;-62
2021/03/28 13:55:10;;;;;;;4.50;2.13;;;;;;;;;;5053314;28;20464;-62
2021/03/28 13:57:40;;;;;;;5.20;2.70;;;;;;;;;;5052526;28;20467;-62
2021/03/28 14:00:12;;;;;;;10.10;3.57;;;;;;;;;;5053127;28;20867;-62
2021/03/28 14:02:39;;;;;;;7.63;2.40;;;;;;;;;;5053590;28;20759;-62
2021/03/28 14:05:16;;;;;;;6.33;2.57;;;;;;;;;;5034018;28;20460;-61
2021/03/28 14:07:41;;;;;;;2.97;2.30;;;;;;;;;;5032896;28;20476;-62
2021/03/28 14:10:10;;;;;;;3.90;2.97;;;;;;;;;;5037905;28;20449;-62
2021/03/28 14:12:37;;;;;;;5.40;2.37;;;;;;;;;;5053543;28;20213;-62
2021/03/28 14:15:14;;;;;;;5.00;2.97;;;;;;;;;;5052970;28;20444;-62
2021/03/28 14:17:40;;;;;;;6.93;4.33;;;;;;;;;;5053119;28;20447;-62
2021/03/28 14:20:15;;;;;;;7.70;3.90;;;;;;;;;;5053651;28;20451;-63
2021/03/28 14:22:49;;;;;;;7.40;3.83;;;;;;;;;;5050977;28;20307;-63
2021/03/28 14:25:33;;;;;;;6.63;3.33;;;;;;;;;;5052453;28;20900;-63
2021/03/28 14:28:19;;;;;;;5.47;3.47;;;;;;;;;;5036533;28;20947;-60
2021/03/28 14:30:44;;;;;;;4.77;3.27;;;;;;;;;;5053611;28;20448;-62
2021/03/28 14:33:21;;;;;;;6.77;3.70;;;;;;;;;;5053229;28;20972;-62
2021/03/28 14:36:08;;;;;;;8.77;3.73;;;;;;;;;;5052847;28;20208;-62
2021/03/28 14:38:43;;;;;;;6.53;2.87;;;;;;;;;;5051978;28;20480;-61
2021/03/28 14:41:15;;;;;;;7.10;2.90;;;;;;;;;;5053405;28;20471;-62
2021/03/28 14:44:05;;;;;;;6.93;2.80;;;;;;;;;;5051842;28;20455;-62
2021/03/28 14:46:56;;;;;;;6.43;3.30;;;;;;;;;;5052414;28;20477;-61
2021/03/28 14:49:30;;;;;;;5.43;3.57;;;;;;;;;;5051803;28;20441;-62
2021/03/28 14:52:32;;;;;;;6.67;3.70;;;;;;;;;;5052357;28;20840;-62
2021/03/28 14:55:08;;;;;;;5.93;3.30;;;;;;;;;;5052786;28;20438;-61
2021/03/28 14:57:38;;;;;;;5.93;3.50;;;;;;;;;;5053342;28;20458;-62
2021/03/28 15:00:30;;;;;;;4.60;3.00;;;;;;;;;;5051944;28;20793;-62
2021/03/28 15:03:22;;;;;;;5.43;2.90;;;;;;;;;;5053253;28;20456;-62
2021/03/28 15:06:07;;;;;;;7.73;4.17;;;;;;;;;;5052123;28;20441;-62
2021/03/28 15:08:47;;;;;;;6.23;3.23;;;;;;;;;;5052564;28;20535;-62
2021/03/28 15:11:32;;;;;;;6.07;3.27;;;;;;;;;;5054092;28;21419;-63
2021/03/28 15:14:16;;;;;;;7.73;3.40;;;;;;;;;;5055509;28;20461;-62
2021/03/28 15:16:58;;;;;;;5.50;3.40;;;;;;;;;;5055652;28;20452;-61
2021/03/28 15:19:28;;;;;;;9.67;3.60;;;;;;;;;;5055418;28;20777;-62
2021/03/28 15:22:00;;;;;;;7.43;3.67;;;;;;;;;;5056042;28;20779;-62
2021/03/28 15:24:52;;;;;;;4.50;2.83;;;;;;;;;;5055455;28;20465;-62
2021/03/28 15:27:27;;;;;;;5.67;2.97;;;;;;;;;;5053742;28;20452;-61
2021/03/28 15:30:17;;;;;;;6.47;2.87;;;;;;;;;;5055815;28;20443;-63
2021/03/28 15:32:56;;;;;;;3.70;2.77;;;;;;;;;;5056297;28;20440;-61
2021/03/28 15:35:37;;;;;;;11.23;3.40;;;;;;;;;;5056356;28;20542;-62
2021/03/28 15:38:13;;;;;;;5.63;3.57;;;;;;;;;;5055884;28;20589;-62
2021/03/28 15:41:09;;;;;;;4.43;3.00;;;;;;;;;;5056094;28;20467;-62
2021/03/28 15:43:45;;;;;;;4.87;3.13;;;;;;;;;;5055152;28;20490;-61
2021/03/28 15:46:22;;;;;;;7.17;2.87;;;;;;;;;;5055659;28;20454;-61
2021/03/28 15:49:06;;;;;;;5.80;2.93;;;;;;;;;;5055353;28;20437;-63
2021/03/28 15:51:56;;;;;;;4.60;2.63;;;;;;;;;;5055580;28;20518;-62
2021/03/28 15:54:45;;;;;;;3.90;2.93;;;;;;;;;;5055232;28;20951;-62
2021/03/28 15:57:21;;;;;;;6.87;3.07;;;;;;;;;;5055430;28;20467;-58
2021/03/28 16:00:14;;;;;;;5.40;3.50;;;;;;;;;;5056021;28;20463;-58
2021/03/28 16:02:53;;;;;;;6.93;2.83;;;;;;;;;;5056314;28;20459;-59
2021/03/28 16:05:50;;;;;;;5.23;2.87;;;;;;;;;;5056266;28;20460;-59
2021/03/28 16:08:55;;;;;;;4.57;3.07;;;;;;;;;;5056837;28;20782;-59
2021/03/28 16:12:06;;;;;;;4.23;3.07;;;;;;;;;;5056101;28;20459;-59
2021/03/28 16:14:46;;;;;;;8.40;3.73;;;;;;;;;;5056031;28;20515;-62
2021/03/28 16:17:27;;;;;;;6.80;3.40;;;;;;;;;;5055338;28;20542;-61
2021/03/28 16:20:50;;;;;;;8.10;4.10;;;;;;;;;;5055091;28;20463;-63
2021/03/28 16:23:34;;;;;;;6.27;3.60;;;;;;;;;;5017002;28;20472;-63
2021/03/28 16:26:08;;;;;;;7.13;3.30;;;;;;;;;;5035414;28;20464;-62
2021/03/28 16:29:02;;;;;;;5.67;3.37;;;;;;;;;;5036013;28;20458;-62
2021/03/28 16:31:54;;;;;;;4.23;3.20;;;;;;;;;;5035455;28;20453;-62
2021/03/28 16:34:35;;;;;;;6.50;3.43;;;;;;;;;;5034472;28;23484;-62
2021/03/28 16:37:11;;;;;;;7.80;3.10;;;;;;;;;;5034670;28;20487;-62
2021/03/28 16:39:37;;;;;;;5.67;4.23;;;;;;;;;;5034194;28;20449;-62
2021/03/28 16:42:16;;;;;;;7.77;3.87;;;;;;;;;;5051010;28;20456;-63
2021/03/28 16:44:50;;;;;;;5.53;3.20;;;;;;;;;;5034266;28;20212;-63
2021/03/28 16:47:25;;;;;;;5.70;3.60;;;;;;;;;;5017812;28;20455;-62
2021/03/28 16:50:05;;;;;;;8.03;4.20;;;;;;;;;;5034636;28;20521;-62
2021/03/28 16:52:48;;;;;;;3.33;2.60;;;;;;;;;;5050334;28;20461;-62
2021/03/28 16:55:16;;;;;;;6.13;3.60;;;;;;;;;;5048547;28;20472;-63
2021/03/28 16:57:50;;;;;;;4.90;3.73;;;;;;;;;;5054722;28;20463;-61
2021/03/28 17:00:16;;;;;;;5.97;4.40;;;;;;;;;;5055193;28;20520;-62
2021/03/28 17:02:44;;;;;;;3.63;3.00;;;;;;;;;;5054276;28;20456;-62
2021/03/28 17:05:12;;;;;;;4.63;2.87;;;;;;;;;;5054941;28;20490;-63
2021/03/28 17:07:49;;;;;;;6.30;3.90;;;;;;;;;;5054551;28;20506;-62
2021/03/28 17:10:42;;;;;;;4.53;3.20;;;;;;;;;;5053873;28;20462;-63
2021/03/28 17:13:23;;;;;;;5.50;3.03;;;;;;;;;;5053247;28;20521;-62
2021/03/28 17:15:49;;;;;;;7.10;3.53;;;;;;;;;;5054909;28;20466;-63
2021/03/28 17:18:22;;;;;;;8.70;3.43;;;;;;;;;;5053127;28;20534;-62
2021/03/28 17:21:05;;;;;;;9.33;4.47;;;;;;;;;;5054759;28;20790;-62
2021/03/28 17:23:59;;;;;;;4.90;3.40;;;;;;;;;;5054214;28;20464;-62
2021/03/28 17:26:38;;;;;;;5.63;3.27;;;;;;;;;;5054207;28;20462;-61
2021/03/28 17:29:20;;;;;;;8.37;4.23;;;;;;;;;;5053887;28;20940;-62
2021/03/28 17:31:57;;;;;;;5.50;3.30;;;;;;;;;;5054597;28;20853;-62
2021/03/28 17:35:01;;;;;;;5.40;3.13;;;;;;;;;;5053779;28;20430;-62
2021/03/28 17:37:26;;;;;;;3.90;2.63;;;;;;;;;;5053294;28;21448;-62
2021/03/28 17:40:08;;;;;;;4.22;3.03;;;;;;;;;;5054548;28;20650;-62
2021/03/28 17:42:34;;;;;;;5.73;2.87;;;;;;;;;;5053918;28;20298;-62
2021/03/28 17:45:25;;;;;;;4.60;3.03;;;;;;;;;;5054685;28;20488;-62
2021/03/28 17:47:57;;;;;;;7.27;3.20;;;;;;;;;;5053000;28;20217;-64
2021/03/28 17:50:33;;;;;;;5.83;4.00;;;;;;;;;;5053224;28;20570;-60
2021/03/28 17:53:17;;;;;;;3.77;3.20;;;;;;;;;;5052475;28;20883;-62
2021/03/28 17:55:50;;;;;;;6.37;2.90;;;;;;;;;;5054054;28;20926;-63
2021/03/28 17:58:23;;;;;;;6.80;3.67;;;;;;;;;;5054101;28;20448;-63
2021/03/28 18:01:00;;;;;;;6.03;2.70;;;;;;;;;;5054069;28;20462;-62
2021/03/28 18:03:26;;;;;;;5.90;3.40;;;;;;;;;;5053353;28;20500;-62
2021/03/28 18:05:54;;;;;;;8.07;2.87;;;;;;;;;;5053153;28;20461;-62
2021/03/28 18:08:21;;;;;;;4.70;3.63;;;;;;;;;;5052826;28;20278;-62
2021/03/28 18:10:53;;;;;;;5.33;2.67;;;;;;;;;;5052724;28;21004;-62
2021/03/28 18:13:28;;;;;;;5.07;2.97;;;;;;;;;;5053638;28;20470;-62
2021/03/28 18:16:11;;;;;;;6.47;2.93;;;;;;;;;;5054065;28;20447;-62
2021/03/28 18:18:44;;;;;;;5.90;3.37;;;;;;;;;;5053508;28;20474;-62
2021/03/28 18:21:36;;;;;;;5.90;3.27;;;;;;;;;;5052382;28;20476;-61
2021/03/28 18:24:07;;;;;;;6.27;4.40;;;;;;;;;;5033370;28;20461;-61